Time,TemperatureF,DewpointF,PressureIn,WindDirection,WindDirectionDegrees,WindSpeedMPH,WindSpeedGustMPH,Humidity,HourlyPrecipIn,Conditions,Clouds,dailyrainin,SoftwareType,DateUTC
2013-12-02 00:01:00,50.3,49.5,29.94,SW,214,0.0,0.0,97,0.00,,---,0.00,VWS V14.01,2013-12-02 06:01:00,
2013-12-02 00:06:00,50.3,49.5,29.94,SW,215,0.0,0.0,97,0.00,,---,0.00,VWS V14.01,2013-12-02 06:06:00,
2013-12-02 00:11:00,50.4,49.6,29.94,SW,215,0.0,0.0,97,0.00,,---,0.00,VWS V14.01,2013-12-02 06:11:00,
2013-12-02 00:16:00,50.4,49.9,29.94,SW,215,0.0,0.0,98,0.00,,---,0.00,VWS V14.01,2013-12-02 06:16:00,
2013-12-02 00:20:00,50.4,49.9,29.94,SW,215,0.0,0.0,98,0.00,,---,0.00,VWS V14.01,2013-12-02 06:20:00,
2013-12-02 00:25:00,50.4,49.9,29.94,SW,215,0.0,0.0,98,0.00,,---,0.00,VWS V14.01,2013-12-02 06:25:00,
2013-12-02 00:30:00,50.5,50.0,29.94,SW,215,0.0,0.0,98,0.00,,---,0.00,VWS V14.01,2013-12-02 06:30:00,
2013-12-02 00:35:00,50.6,50.1,29.94,SW,215,0.0,0.0,98,0.00,,---,0.00,VWS V14.01,2013-12-02 06:35:00,
2013-12-02 00:40:00,50.6,50.1,29.94,SW,215,0.0,0.0,98,0.00,,---,0.00,VWS V14.01,2013-12-02 06:40:00,
2013-12-02 00:45:00,50.7,50.2,29.93,SW,214,0.0,0.0,98,0.00,,---,0.00,VWS V14.01,2013-12-02 06:45:00,
2013-12-02 00:50:00,50.7,50.2,29.94,SW,215,0.0,0.0,98,0.00,,---,0.00,VWS V14.01,2013-12-02 06:50:00,
2013-12-02 00:55:00,50.8,50.3,29.94,SW,215,0.0,0.0,98,0.00,,---,0.00,VWS V14.01,2013-12-02 06:55:00,
2013-12-02 01:00:00,50.8,50.3,29.94,SW,214,0.0,0.0,98,0.00,,---,0.00,VWS V14.01,2013-12-02 07:00:00,
2013-12-02 01:05:00,50.8,50.3,29.93,SW,215,0.0,0.0,98,0.00,,---,0.00,VWS V14.01,2013-12-02 07:05:00,
2013-12-02 01:10:00,50.8,50.3,29.93,SW,214,0.0,0.0,98,0.00,,---,0.00,VWS V14.01,2013-12-02 07:10:00,
2013-12-02 01:15:00,50.8,50.3,29.93,SW,215,0.0,0.0,98,0.00,,---,0.00,VWS V14.01,2013-12-02 07:15:00,
2013-12-02 01:20:00,50.9,50.4,29.93,SW,215,0.0,0.0,98,0.00,,---,0.00,VWS V14.01,2013-12-02 07:20:00,
2013-12-02 01:25:00,50.9,50.4,29.93,SW,214,0.0,0.0,98,0.00,,---,0.00,VWS V14.01,2013-12-02 07:25:00,
2013-12-02 01:30:00,50.9,50.4,29.93,SW,215,0.0,0.0,98,0.00,,---,0.00,VWS V14.01,2013-12-02 07:30:00,
2013-12-02 01:35:00,51.0,50.5,29.93,SW,216,0.0,0.0,98,0.00,,---,0.00,VWS V14.01,2013-12-02 07:35:00,
2013-12-02 01:40:00,51.0,50.5,29.93,SW,215,0.0,0.0,98,0.00,,---,0.00,VWS V14.01,2013-12-02 07:40:00,
2013-12-02 01:45:00,51.0,50.5,29.93,SW,215,0.0,0.0,98,0.00,,---,0.00,VWS V14.01,2013-12-02 07:45:00,
2013-12-02 01:50:00,51.0,50.5,29.94,SW,215,0.0,0.0,98,0.00,,---,0.00,VWS V14.01,2013-12-02 07:50:00,
2013-12-02 01:55:00,51.0,50.5,29.94,SW,215,0.0,0.0,98,0.00,,---,0.00,VWS V14.01,2013-12-02 07:55:00,
2013-12-02 02:00:00,51.1,50.6,29.94,SW,215,0.0,0.0,98,0.00,,---,0.00,VWS V14.01,2013-12-02 08:00:00,
2013-12-02 02:05:00,51.2,50.7,29.93,SW,215,0.0,0.0,98,0.00,,---,0.00,VWS V14.01,2013-12-02 08:05:00,
2013-12-02 02:10:00,51.2,50.7,29.94,SW,215,0.0,0.0,98,0.00,,---,0.00,VWS V14.01,2013-12-02 08:10:00,
2013-12-02 02:15:00,51.3,50.8,29.93,SW,215,0.0,0.0,98,0.00,,---,0.00,VWS V14.01,2013-12-02 08:15:00,
2013-12-02 02:20:00,51.3,50.8,29.93,SW,214,0.0,0.0,98,0.00,,---,0.00,VWS V14.01,2013-12-02 08:20:00,
2013-12-02 02:25:00,51.3,50.8,29.92,SW,215,0.0,0.0,98,0.00,,---,0.00,VWS V14.01,2013-12-02 08:25:00,
2013-12-02 02:30:00,51.4,50.9,29.91,SW,215,0.0,0.0,98,0.00,,---,0.00,VWS V14.01,2013-12-02 08:30:00,
2013-12-02 02:35:00,51.4,50.9,29.91,SW,214,0.0,0.0,98,0.00,,---,0.00,VWS V14.01,2013-12-02 08:35:00,
2013-12-02 02:40:00,51.4,50.9,29.91,SW,215,0.0,0.0,98,0.00,,---,0.00,VWS V14.01,2013-12-02 08:40:00,
2013-12-02 02:45:00,51.4,50.9,29.90,SW,215,0.0,0.0,98,0.00,,---,0.00,VWS V14.01,2013-12-02 08:45:00,
2013-12-02 02:50:00,51.4,50.9,29.91,SW,215,0.0,0.0,98,0.00,,---,0.00,VWS V14.01,2013-12-02 08:50:00,
2013-12-02 02:55:00,51.4,50.9,29.91,SW,215,0.0,0.0,98,0.00,,---,0.00,VWS V14.01,2013-12-02 08:55:00,
2013-12-02 03:00:00,51.4,50.9,29.91,SW,215,0.0,0.0,98,0.00,,---,0.00,VWS V14.01,2013-12-02 09:00:00,
2013-12-02 03:05:00,51.4,50.9,29.90,SW,215,0.0,0.0,98,0.00,,---,0.00,VWS V14.01,2013-12-02 09:05:00,
2013-12-02 03:10:00,51.4,50.9,29.89,SW,215,0.0,0.0,98,0.00,,---,0.00,VWS V14.01,2013-12-02 09:10:00,
2013-12-02 03:15:00,51.4,50.9,29.89,SW,215,0.0,0.0,98,0.00,,---,0.00,VWS V14.01,2013-12-02 09:15:00,
2013-12-02 03:20:00,51.4,50.9,29.90,SW,215,0.0,0.0,98,0.00,,---,0.00,VWS V14.01,2013-12-02 09:20:00,
2013-12-02 03:25:00,51.4,50.9,29.90,SW,215,0.0,0.0,98,0.00,,---,0.00,VWS V14.01,2013-12-02 09:25:00,
2013-12-02 03:30:00,51.3,50.8,29.90,SW,215,0.0,0.0,98,0.00,,---,0.00,VWS V14.01,2013-12-02 09:30:00,
2013-12-02 03:35:00,51.3,50.8,29.89,SW,215,0.0,0.0,98,0.00,,---,0.00,VWS V14.01,2013-12-02 09:35:00,
2013-12-02 03:40:00,51.3,50.8,29.89,SW,215,0.0,0.0,98,0.00,,---,0.00,VWS V14.01,2013-12-02 09:40:00,
2013-12-02 03:45:00,51.2,50.7,29.89,SW,215,0.0,0.0,98,0.00,,---,0.00,VWS V14.01,2013-12-02 09:45:00,
2013-12-02 03:50:00,51.0,50.5,29.89,SW,215,0.0,0.0,98,0.00,,---,0.00,VWS V14.01,2013-12-02 09:50:00,
2013-12-02 03:55:00,50.8,50.3,29.89,SW,214,0.0,0.0,98,0.00,,---,0.00,VWS V14.01,2013-12-02 09:55:00,
2013-12-02 04:00:00,50.6,50.1,29.89,SW,215,0.0,0.0,98,0.00,,---,0.00,VWS V14.01,2013-12-02 10:00:00,
2013-12-02 04:05:00,50.4,49.9,29.88,SW,215,0.0,0.0,98,0.00,,---,0.00,VWS V14.01,2013-12-02 10:05:00,
2013-12-02 04:10:00,50.2,49.7,29.88,SW,215,0.0,0.0,98,0.00,,---,0.00,VWS V14.01,2013-12-02 10:10:00,
2013-12-02 04:15:00,50.0,49.5,29.88,SW,215,0.0,0.0,98,0.00,,---,0.00,VWS V14.01,2013-12-02 10:15:00,
2013-12-02 04:20:00,49.9,49.4,29.88,SW,215,0.0,0.0,98,0.00,,---,0.00,VWS V14.01,2013-12-02 10:20:00,
2013-12-02 04:25:00,49.8,49.3,29.88,SW,215,0.0,0.0,98,0.00,,---,0.00,VWS V14.01,2013-12-02 10:25:00,
2013-12-02 04:30:00,49.6,49.1,29.88,SW,215,0.0,0.0,98,0.00,,---,0.00,VWS V14.01,2013-12-02 10:30:00,
2013-12-02 04:35:00,49.4,48.9,29.88,SW,215,0.0,0.0,98,0.00,,---,0.00,VWS V14.01,2013-12-02 10:35:00,
2013-12-02 04:40:00,49.2,48.7,29.88,SW,215,0.0,0.0,98,0.00,,---,0.00,VWS V14.01,2013-12-02 10:40:00,
2013-12-02 04:45:00,49.0,48.5,29.88,SW,215,0.0,0.0,98,0.00,,---,0.00,VWS V14.01,2013-12-02 10:45:00,
2013-12-02 04:50:00,49.0,48.5,29.88,SW,215,0.0,0.0,98,0.00,,---,0.00,VWS V14.01,2013-12-02 10:50:00,
2013-12-02 04:55:00,48.8,48.3,29.88,SW,215,0.0,0.0,98,0.00,,---,0.00,VWS V14.01,2013-12-02 10:55:00,
2013-12-02 05:00:00,48.7,48.2,29.88,SW,215,0.0,0.0,98,0.00,,---,0.00,VWS V14.01,2013-12-02 11:00:00,
2013-12-02 05:05:00,48.5,48.0,29.88,SW,215,0.0,0.0,98,0.00,,---,0.00,VWS V14.01,2013-12-02 11:05:00,
2013-12-02 05:10:00,48.3,47.8,29.88,SW,215,0.0,0.0,98,0.00,,---,0.00,VWS V14.01,2013-12-02 11:10:00,
2013-12-02 05:15:00,48.1,47.6,29.88,SW,215,0.0,0.0,98,0.00,,---,0.00,VWS V14.01,2013-12-02 11:15:00,
2013-12-02 05:20:00,48.0,47.5,29.88,SW,215,0.0,0.0,98,0.00,,---,0.00,VWS V14.01,2013-12-02 11:20:00,
2013-12-02 05:25:00,47.7,47.2,29.88,SW,215,0.0,0.0,98,0.00,,---,0.00,VWS V14.01,2013-12-02 11:25:00,
2013-12-02 05:30:00,47.6,47.1,29.87,SW,216,0.0,0.0,98,0.00,,---,0.00,VWS V14.01,2013-12-02 11:30:00,
2013-12-02 05:35:00,47.4,46.9,29.87,SW,215,0.0,0.0,98,0.00,,---,0.00,VWS V14.01,2013-12-02 11:35:00,
2013-12-02 05:40:00,47.3,46.8,29.87,SW,215,0.0,0.0,98,0.00,,---,0.00,VWS V14.01,2013-12-02 11:40:00,
2013-12-02 05:45:00,47.3,46.8,29.87,SW,215,0.0,0.0,98,0.00,,---,0.00,VWS V14.01,2013-12-02 11:45:00,
2013-12-02 05:50:00,47.0,46.5,29.87,SW,215,0.0,0.0,98,0.00,,---,0.00,VWS V14.01,2013-12-02 11:50:00,
2013-12-02 05:55:00,46.8,46.3,29.88,SW,215,0.0,0.0,98,0.00,,---,0.00,VWS V14.01,2013-12-02 11:55:00,
2013-12-02 06:00:00,46.6,46.1,29.88,SW,214,0.0,0.0,98,0.00,,---,0.00,VWS V14.01,2013-12-02 12:00:00,
2013-12-02 06:05:00,46.5,46.0,29.88,SW,215,0.0,0.0,98,0.00,,---,0.00,VWS V14.01,2013-12-02 12:05:00,
2013-12-02 06:10:00,46.6,46.1,29.88,SW,214,0.0,0.0,98,0.00,,---,0.00,VWS V14.01,2013-12-02 12:10:00,
2013-12-02 06:15:00,46.4,45.9,29.88,SW,215,0.0,0.0,98,0.00,,---,0.00,VWS V14.01,2013-12-02 12:15:00,
2013-12-02 06:20:00,46.3,45.8,29.88,SW,215,0.0,0.0,98,0.00,,---,0.00,VWS V14.01,2013-12-02 12:20:00,
2013-12-02 06:25:00,46.1,45.6,29.88,SW,215,0.0,0.0,98,0.00,,---,0.00,VWS V14.01,2013-12-02 12:25:00,
2013-12-02 06:30:00,45.9,45.4,29.87,SW,215,0.0,0.0,98,0.00,,---,0.00,VWS V14.01,2013-12-02 12:30:00,
2013-12-02 06:35:00,45.7,45.2,29.87,SW,215,0.0,0.0,98,0.00,,---,0.00,VWS V14.01,2013-12-02 12:35:00,
2013-12-02 06:40:00,45.6,45.1,29.88,SW,215,0.0,0.0,98,0.00,,---,0.00,VWS V14.01,2013-12-02 12:40:00,
2013-12-02 06:44:00,45.4,44.9,29.88,SW,215,0.0,0.0,98,0.00,,---,0.00,VWS V14.01,2013-12-02 12:44:00,
2013-12-02 06:49:00,45.3,44.8,29.88,SW,214,0.0,0.0,98,0.00,,---,0.00,VWS V14.01,2013-12-02 12:49:00,
2013-12-02 06:54:00,45.3,44.8,29.88,SW,215,0.0,0.0,98,0.00,,---,0.00,VWS V14.01,2013-12-02 12:54:00,
2013-12-02 06:59:00,45.3,44.8,29.88,SW,215,0.0,0.0,98,0.00,,---,0.00,VWS V14.01,2013-12-02 12:59:00,
2013-12-02 07:04:00,45.3,44.8,29.88,SW,215,0.0,0.0,98,0.00,,---,0.00,VWS V14.01,2013-12-02 13:04:00,
2013-12-02 07:09:00,45.6,45.1,29.88,SW,215,0.0,0.0,98,0.00,,---,0.00,VWS V14.01,2013-12-02 13:09:00,
2013-12-02 07:14:00,46.0,45.5,29.88,SW,214,0.0,0.0,98,0.00,,---,0.00,VWS V14.01,2013-12-02 13:14:00,
2013-12-02 07:19:00,46.4,45.9,29.88,SW,214,0.0,0.0,98,0.00,,---,0.00,VWS V14.01,2013-12-02 13:19:00,
2013-12-02 07:24:00,46.7,46.2,29.88,SW,215,0.0,0.0,98,0.00,,---,0.00,VWS V14.01,2013-12-02 13:24:00,
2013-12-02 07:29:00,47.0,46.7,29.88,SW,215,0.0,0.0,99,0.00,,---,0.00,VWS V14.01,2013-12-02 13:29:00,
2013-12-02 07:34:00,47.4,47.1,29.88,SW,215,0.0,0.0,99,0.00,,---,0.00,VWS V14.01,2013-12-02 13:34:00,
2013-12-02 07:39:00,47.9,47.6,29.87,SW,215,0.0,0.0,99,0.00,,---,0.00,VWS V14.01,2013-12-02 13:39:00,
2013-12-02 07:44:00,48.3,48.0,29.87,SW,215,0.0,0.0,99,0.00,,---,0.00,VWS V14.01,2013-12-02 13:44:00,
2013-12-02 07:49:00,48.7,48.4,29.87,SW,215,0.0,0.0,99,0.00,,---,0.00,VWS V14.01,2013-12-02 13:49:00,
2013-12-02 07:54:00,49.0,48.7,29.88,SW,214,0.0,0.0,99,0.00,,---,0.00,VWS V14.01,2013-12-02 13:54:00,
2013-12-02 07:59:00,49.3,49.0,29.88,SW,215,0.0,0.0,99,0.00,,---,0.00,VWS V14.01,2013-12-02 13:59:00,
2013-12-02 08:04:00,49.7,49.4,29.88,SW,215,0.0,0.0,99,0.00,,---,0.00,VWS V14.01,2013-12-02 14:04:00,
2013-12-02 08:09:00,50.2,49.9,29.87,SW,215,0.0,0.0,99,0.00,,---,0.00,VWS V14.01,2013-12-02 14:09:00,
2013-12-02 08:14:00,50.9,50.6,29.87,SW,215,0.0,0.0,99,0.00,,---,0.00,VWS V14.01,2013-12-02 14:14:00,
2013-12-02 08:19:00,51.6,51.3,29.87,SW,216,0.0,0.0,99,0.00,,---,0.00,VWS V14.01,2013-12-02 14:19:00,
2013-12-02 08:24:00,52.0,51.7,29.86,SW,215,0.0,0.0,99,0.00,,---,0.00,VWS V14.01,2013-12-02 14:24:00,
2013-12-02 08:29:00,52.7,52.4,29.86,SW,215,0.0,0.0,99,0.00,,---,0.00,VWS V14.01,2013-12-02 14:29:00,
2013-12-02 08:34:00,53.2,52.9,29.86,SW,215,0.0,0.0,99,0.00,,---,0.00,VWS V14.01,2013-12-02 14:34:00,
2013-12-02 08:39:00,53.7,53.4,29.86,SW,214,0.0,0.0,99,0.00,,---,0.00,VWS V14.01,2013-12-02 14:39:00,
2013-12-02 08:44:00,54.1,53.8,29.86,SW,214,0.0,0.0,99,0.00,,---,0.00,VWS V14.01,2013-12-02 14:44:00,
2013-12-02 08:49:00,54.3,54.0,29.86,SW,215,0.0,0.0,99,0.00,,---,0.00,VWS V14.01,2013-12-02 14:49:00,
2013-12-02 08:54:00,54.7,54.4,29.86,SW,215,0.0,0.0,99,0.00,,---,0.00,VWS V14.01,2013-12-02 14:54:00,
2013-12-02 08:59:00,55.2,54.9,29.87,SW,215,0.0,0.0,99,0.00,,---,0.00,VWS V14.01,2013-12-02 14:59:00,
2013-12-02 09:04:00,55.7,55.4,29.87,SW,215,0.0,0.0,99,0.00,,---,0.00,VWS V14.01,2013-12-02 15:04:00,
2013-12-02 09:09:00,56.0,55.5,29.87,SW,215,0.0,0.0,98,0.00,,---,0.00,VWS V14.01,2013-12-02 15:09:00,
2013-12-02 09:14:00,56.7,56.1,29.87,SW,215,0.0,0.0,98,0.00,,---,0.00,VWS V14.01,2013-12-02 15:14:00,
2013-12-02 09:19:00,57.3,56.5,29.87,SW,215,0.0,0.0,97,0.00,,---,0.00,VWS V14.01,2013-12-02 15:19:00,
2013-12-02 09:24:00,58.3,57.2,29.86,SW,215,0.0,0.0,96,0.00,,---,0.00,VWS V14.01,2013-12-02 15:24:00,
2013-12-02 09:29:00,59.1,57.4,29.87,SW,215,0.0,0.0,94,0.00,,---,0.00,VWS V14.01,2013-12-02 15:29:00,
2013-12-02 09:34:00,59.8,57.2,29.86,SW,215,0.0,0.0,91,0.00,,---,0.00,VWS V14.01,2013-12-02 15:34:00,
2013-12-02 09:39:00,60.5,57.2,29.87,SW,215,0.0,0.0,89,0.00,,---,0.00,VWS V14.01,2013-12-02 15:39:00,
2013-12-02 09:44:00,61.2,57.9,29.86,SW,215,0.0,0.0,89,0.00,,---,0.00,VWS V14.01,2013-12-02 15:44:00,
2013-12-02 09:49:00,61.7,58.1,29.86,SW,215,0.0,0.0,88,0.00,,---,0.00,VWS V14.01,2013-12-02 15:49:00,
2013-12-02 09:54:00,62.2,58.0,29.86,SW,214,0.0,0.0,86,0.00,,---,0.00,VWS V14.01,2013-12-02 15:54:00,
2013-12-02 09:59:00,62.9,57.0,29.86,SW,214,0.0,0.0,81,0.00,,---,0.00,VWS V14.01,2013-12-02 15:59:00,
2013-12-02 10:04:00,63.9,56.2,29.86,SE,145,0.0,1.0,76,0.00,,---,0.00,VWS V14.01,2013-12-02 16:04:00,
2013-12-02 10:09:00,64.8,57.4,29.86,SW,224,0.0,1.0,77,0.00,,---,0.00,VWS V14.01,2013-12-02 16:09:00,
2013-12-02 10:14:00,65.5,56.2,29.85,SE,124,0.0,1.0,72,0.00,,---,0.00,VWS V14.01,2013-12-02 16:14:00,
2013-12-02 10:19:00,66.2,56.1,29.85,SE,129,0.0,1.0,70,0.00,,---,0.00,VWS V14.01,2013-12-02 16:19:00,
2013-12-02 10:24:00,66.7,56.2,29.85,SW,226,0.0,1.0,69,0.00,,---,0.00,VWS V14.01,2013-12-02 16:24:00,
2013-12-02 10:29:00,67.3,57.6,29.85,SW,225,0.0,0.0,71,0.00,,---,0.00,VWS V14.01,2013-12-02 16:29:00,
2013-12-02 10:34:00,67.7,57.2,29.85,SW,226,0.0,0.0,69,0.00,,---,0.00,VWS V14.01,2013-12-02 16:34:00,
2013-12-02 10:39:00,68.1,54.2,29.84,SSW,210,0.0,2.0,61,0.00,,---,0.00,VWS V14.01,2013-12-02 16:39:00,
2013-12-02 10:44:00,68.3,55.2,29.84,SSW,208,0.0,2.0,63,0.00,,---,0.00,VWS V14.01,2013-12-02 16:44:00,
2013-12-02 10:49:00,68.5,55.4,29.84,SSW,208,0.0,2.0,63,0.00,,---,0.00,VWS V14.01,2013-12-02 16:49:00,
2013-12-02 10:54:00,68.8,55.3,29.83,SSW,201,1.0,2.0,62,0.00,,---,0.00,VWS V14.01,2013-12-02 16:54:00,
2013-12-02 10:59:00,69.0,55.5,29.83,SW,224,2.0,2.0,62,0.00,,---,0.00,VWS V14.01,2013-12-02 16:59:00,
2013-12-02 11:04:00,69.2,54.7,29.83,SW,215,0.0,2.0,60,0.00,,---,0.00,VWS V14.01,2013-12-02 17:04:00,
2013-12-02 11:09:00,69.4,55.4,29.82,SSW,198,1.0,3.0,61,0.00,,---,0.00,VWS V14.01,2013-12-02 17:09:00,
2013-12-02 11:14:00,70.1,56.5,29.82,SSW,198,0.0,3.0,62,0.00,,---,0.00,VWS V14.01,2013-12-02 17:14:00,
2013-12-02 11:19:00,70.6,55.6,29.82,SSW,201,0.0,3.0,59,0.00,,---,0.00,VWS V14.01,2013-12-02 17:19:00,
2013-12-02 11:24:00,71.2,56.2,29.81,SW,224,0.0,3.0,59,0.00,,---,0.00,VWS V14.01,2013-12-02 17:24:00,
2013-12-02 11:29:00,71.3,56.7,29.81,SW,232,0.0,1.0,60,0.00,,---,0.00,VWS V14.01,2013-12-02 17:29:00,
2013-12-02 11:34:00,71.3,57.6,29.81,SW,232,0.0,1.0,62,0.00,,---,0.00,VWS V14.01,2013-12-02 17:34:00,
2013-12-02 11:39:00,71.5,56.9,29.80,SSW,210,0.0,2.0,60,0.00,,---,0.00,VWS V14.01,2013-12-02 17:39:00,
2013-12-02 11:44:00,71.5,57.4,29.80,SW,215,2.0,2.0,61,0.00,,---,0.00,VWS V14.01,2013-12-02 17:44:00,
2013-12-02 11:49:00,71.1,57.9,29.80,SSW,197,0.0,2.0,63,0.00,,---,0.00,VWS V14.01,2013-12-02 17:49:00,
2013-12-02 11:54:00,71.1,57.9,29.79,SE,135,1.0,2.0,63,0.00,,---,0.00,VWS V14.01,2013-12-02 17:54:00,
2013-12-02 11:59:00,71.5,58.7,29.79,SW,223,0.0,0.0,64,0.00,,---,0.00,VWS V14.01,2013-12-02 17:59:00,
2013-12-02 12:04:00,72.3,59.0,29.79,South,187,0.0,4.0,63,0.00,,---,0.00,VWS V14.01,2013-12-02 18:04:00,
2013-12-02 12:08:00,72.5,58.3,29.78,SSE,150,1.0,4.0,61,0.00,,---,0.00,VWS V14.01,2013-12-02 18:08:00,
2013-12-02 12:13:00,72.4,57.8,29.78,SW,218,2.0,4.0,60,0.00,,---,0.00,VWS V14.01,2013-12-02 18:13:00,
2013-12-02 12:18:00,72.0,58.3,29.78,SSE,162,0.0,4.0,62,0.00,,---,0.00,VWS V14.01,2013-12-02 18:18:00,
2013-12-02 12:23:00,71.8,57.2,29.78,SSW,198,0.0,4.0,60,0.00,,---,0.00,VWS V14.01,2013-12-02 18:23:00,
2013-12-02 12:28:00,72.1,57.9,29.78,SW,217,2.0,3.0,61,0.00,,---,0.00,VWS V14.01,2013-12-02 18:28:00,
2013-12-02 12:33:00,71.9,56.8,29.77,SSW,199,2.0,4.0,59,0.00,,---,0.00,VWS V14.01,2013-12-02 18:33:00,
2013-12-02 12:38:00,71.3,55.8,29.77,SSW,197,0.0,4.0,58,0.00,,---,0.00,VWS V14.01,2013-12-02 18:38:00,
2013-12-02 12:43:00,70.7,55.7,29.77,SSW,205,2.0,4.0,59,0.00,,---,0.00,VWS V14.01,2013-12-02 18:43:00,
2013-12-02 12:48:00,70.0,56.0,29.77,SSE,167,0.0,4.0,61,0.00,,---,0.00,VWS V14.01,2013-12-02 18:48:00,
2013-12-02 12:53:00,69.9,56.3,29.76,SSW,204,0.0,4.0,62,0.00,,---,0.00,VWS V14.01,2013-12-02 18:53:00,
2013-12-02 12:58:00,70.0,56.8,29.76,SSW,210,0.0,2.0,63,0.00,,---,0.00,VWS V14.01,2013-12-02 18:58:00,
2013-12-02 13:03:00,70.2,57.0,29.76,SW,214,2.0,3.0,63,0.00,,---,0.00,VWS V14.01,2013-12-02 19:03:00,
2013-12-02 13:08:00,70.7,57.1,29.76,South,174,1.0,5.0,62,0.00,,---,0.00,VWS V14.01,2013-12-02 19:08:00,
2013-12-02 13:13:00,70.3,56.7,29.76,South,188,1.0,5.0,62,0.00,,---,0.00,VWS V14.01,2013-12-02 19:13:00,
2013-12-02 13:18:00,70.2,57.5,29.76,SSE,160,1.0,5.0,64,0.00,,---,0.00,VWS V14.01,2013-12-02 19:18:00,
2013-12-02 13:23:00,70.6,57.4,29.76,SSW,210,1.0,5.0,63,0.00,,---,0.00,VWS V14.01,2013-12-02 19:23:00,
2013-12-02 13:28:00,70.8,57.6,29.75,SW,225,1.0,2.0,63,0.00,,---,0.00,VWS V14.01,2013-12-02 19:28:00,
2013-12-02 13:33:00,70.5,56.9,29.75,SSW,195,0.0,2.0,62,0.00,,---,0.00,VWS V14.01,2013-12-02 19:33:00,
2013-12-02 13:38:00,70.6,57.8,29.75,SSW,203,0.0,3.0,64,0.00,,---,0.00,VWS V14.01,2013-12-02 19:38:00,
2013-12-02 13:43:00,70.7,58.4,29.75,South,180,0.0,3.0,65,0.00,,---,0.00,VWS V14.01,2013-12-02 19:43:00,
2013-12-02 13:48:00,70.4,57.7,29.75,SSW,208,0.0,3.0,64,0.00,,---,0.00,VWS V14.01,2013-12-02 19:48:00,
2013-12-02 13:53:00,69.7,57.8,29.75,SSE,158,1.0,3.0,66,0.00,,---,0.00,VWS V14.01,2013-12-02 19:53:00,
2013-12-02 13:58:00,69.3,57.5,29.75,South,189,1.0,1.0,66,0.00,,---,0.00,VWS V14.01,2013-12-02 19:58:00,
2013-12-02 14:03:00,68.9,57.5,29.75,SSW,208,2.0,3.0,67,0.00,,---,0.00,VWS V14.01,2013-12-02 20:03:00,
2013-12-02 14:08:00,68.6,58.0,29.74,SSW,198,2.0,3.0,69,0.00,,---,0.00,VWS V14.01,2013-12-02 20:08:00,
2013-12-02 14:13:00,68.0,57.5,29.74,SW,215,2.0,3.0,69,0.00,,---,0.00,VWS V14.01,2013-12-02 20:13:00,
2013-12-02 14:18:00,67.6,57.5,29.74,SW,217,0.0,3.0,70,0.00,,---,0.00,VWS V14.01,2013-12-02 20:18:00,
2013-12-02 14:23:00,67.5,57.0,29.74,SSW,211,0.0,3.0,69,0.00,,---,0.00,VWS V14.01,2013-12-02 20:23:00,
2013-12-02 14:28:00,67.3,56.8,29.74,SW,215,0.0,0.0,69,0.00,,---,0.00,VWS V14.01,2013-12-02 20:28:00,
2013-12-02 14:33:00,67.1,55.4,29.75,SSW,210,1.0,2.0,66,0.00,,---,0.00,VWS V14.01,2013-12-02 20:33:00,
2013-12-02 14:38:00,66.9,56.0,29.74,SSW,210,1.0,2.0,68,0.00,,---,0.00,VWS V14.01,2013-12-02 20:38:00,
2013-12-02 14:43:00,66.8,55.9,29.75,SSW,205,0.0,2.0,68,0.00,,---,0.00,VWS V14.01,2013-12-02 20:43:00,
2013-12-02 14:48:00,66.6,55.3,29.74,SSW,211,0.0,2.0,67,0.00,,---,0.00,VWS V14.01,2013-12-02 20:48:00,
2013-12-02 14:53:00,66.6,56.5,29.74,SW,214,0.0,2.0,70,0.00,,---,0.00,VWS V14.01,2013-12-02 20:53:00,
2013-12-02 14:58:00,66.3,56.2,29.74,SW,217,0.0,0.0,70,0.00,,---,0.00,VWS V14.01,2013-12-02 20:58:00,
2013-12-02 15:03:00,66.1,56.4,29.74,SW,217,0.0,0.0,71,0.00,,---,0.00,VWS V14.01,2013-12-02 21:03:00,
2013-12-02 15:08:00,65.8,55.8,29.74,SSW,204,0.0,1.0,70,0.00,,---,0.00,VWS V14.01,2013-12-02 21:08:00,
2013-12-02 15:13:00,65.3,55.3,29.74,SSW,207,0.0,1.0,70,0.00,,---,0.00,VWS V14.01,2013-12-02 21:13:00,
2013-12-02 15:18:00,64.8,54.8,29.74,SSW,211,1.0,1.0,70,0.00,,---,0.00,VWS V14.01,2013-12-02 21:18:00,
2013-12-02 15:23:00,64.4,54.8,29.74,SSW,207,0.0,1.0,71,0.00,,---,0.00,VWS V14.01,2013-12-02 21:23:00,
2013-12-02 15:28:00,64.2,54.6,29.74,South,186,0.0,0.0,71,0.00,,---,0.00,VWS V14.01,2013-12-02 21:28:00,
2013-12-02 15:33:00,63.8,54.2,29.74,SE,144,0.0,1.0,71,0.00,,---,0.00,VWS V14.01,2013-12-02 21:33:00,
2013-12-02 15:38:00,63.6,54.4,29.74,SSE,147,0.0,1.0,72,0.00,,---,0.00,VWS V14.01,2013-12-02 21:38:00,
2013-12-02 15:43:00,63.4,53.8,29.74,SE,146,0.0,1.0,71,0.00,,---,0.00,VWS V14.01,2013-12-02 21:43:00,
2013-12-02 15:48:00,63.3,54.1,29.74,SSE,151,0.0,1.0,72,0.00,,---,0.00,VWS V14.01,2013-12-02 21:48:00,
2013-12-02 15:53:00,63.2,55.2,29.74,SSE,151,0.0,1.0,75,0.00,,---,0.00,VWS V14.01,2013-12-02 21:53:00,
2013-12-02 15:58:00,63.2,55.2,29.74,SSE,150,0.0,1.0,75,0.00,,---,0.00,VWS V14.01,2013-12-02 21:58:00,
2013-12-02 16:03:00,63.1,55.1,29.73,SSW,212,0.0,2.0,75,0.00,,---,0.00,VWS V14.01,2013-12-02 22:03:00,
2013-12-02 16:08:00,62.9,54.5,29.73,SSW,195,0.0,2.0,74,0.00,,---,0.00,VWS V14.01,2013-12-02 22:08:00,
2013-12-02 16:13:00,62.6,54.6,29.73,SW,218,0.0,2.0,75,0.00,,---,0.00,VWS V14.01,2013-12-02 22:13:00,
2013-12-02 16:18:00,62.2,54.5,29.73,SW,218,0.0,2.0,76,0.00,,---,0.00,VWS V14.01,2013-12-02 22:18:00,
2013-12-02 16:23:00,61.9,54.6,29.73,SW,217,0.0,2.0,77,0.00,,---,0.00,VWS V14.01,2013-12-02 22:23:00,
2013-12-02 16:28:00,61.7,54.8,29.73,SW,217,0.0,2.0,78,0.00,,---,0.00,VWS V14.01,2013-12-02 22:28:00,
2013-12-02 16:33:00,61.6,55.0,29.74,SW,217,0.0,0.0,79,0.00,,---,0.00,VWS V14.01,2013-12-02 22:33:00,
2013-12-02 16:38:00,61.4,54.8,29.73,SW,217,0.0,0.0,79,0.00,,---,0.00,VWS V14.01,2013-12-02 22:38:00,
2013-12-02 16:43:00,61.3,55.1,29.73,SSW,201,0.0,1.0,80,0.00,,---,0.00,VWS V14.01,2013-12-02 22:43:00,
2013-12-02 16:48:00,61.1,55.2,29.73,SSW,201,0.0,1.0,81,0.00,,---,0.00,VWS V14.01,2013-12-02 22:48:00,
2013-12-02 16:53:00,60.9,55.0,29.73,SSW,201,0.0,1.0,81,0.00,,---,0.00,VWS V14.01,2013-12-02 22:53:00,
2013-12-02 16:58:00,60.6,55.1,29.73,SSW,201,0.0,1.0,82,0.00,,---,0.00,VWS V14.01,2013-12-02 22:58:00,
2013-12-02 17:03:00,60.4,55.2,29.73,SSW,201,0.0,0.0,83,0.00,,---,0.00,VWS V14.01,2013-12-02 23:03:00,
2013-12-02 17:08:00,60.3,55.5,29.73,SSW,201,0.0,0.0,84,0.00,,---,0.00,VWS V14.01,2013-12-02 23:08:00,
2013-12-02 17:13:00,60.2,55.3,29.73,SSW,201,0.0,0.0,84,0.00,,---,0.00,VWS V14.01,2013-12-02 23:13:00,
2013-12-02 17:18:00,60.1,55.3,29.73,SSW,201,0.0,0.0,84,0.00,,---,0.00,VWS V14.01,2013-12-02 23:18:00,
2013-12-02 17:23:00,59.8,55.0,29.73,SSW,201,0.0,0.0,84,0.00,,---,0.00,VWS V14.01,2013-12-02 23:23:00,
2013-12-02 17:27:00,59.3,54.8,29.74,SSW,201,0.0,0.0,85,0.00,,---,0.00,VWS V14.01,2013-12-02 23:27:00,
2013-12-02 17:32:00,58.8,54.6,29.74,SSW,201,0.0,0.0,86,0.00,,---,0.00,VWS V14.01,2013-12-02 23:32:00,
2013-12-02 17:37:00,58.3,54.5,29.74,SSW,201,0.0,0.0,87,0.00,,---,0.00,VWS V14.01,2013-12-02 23:37:00,
2013-12-02 17:42:00,57.9,54.4,29.74,SSW,201,0.0,0.0,88,0.00,,---,0.00,VWS V14.01,2013-12-02 23:42:00,
2013-12-02 17:47:00,57.5,54.3,29.74,SSW,201,0.0,0.0,89,0.00,,---,0.00,VWS V14.01,2013-12-02 23:47:00,
2013-12-02 17:52:00,57.2,54.0,29.74,SSW,201,0.0,0.0,89,0.00,,---,0.00,VWS V14.01,2013-12-02 23:52:00,
2013-12-02 17:57:00,57.0,54.1,29.73,SSW,201,0.0,0.0,90,0.00,,---,0.00,VWS V14.01,2013-12-02 23:57:00,
2013-12-02 18:02:00,56.9,54.3,29.73,SSW,201,0.0,0.0,91,0.00,,---,0.00,VWS V14.01,2013-12-03 00:02:00,
2013-12-02 18:07:00,56.7,54.1,29.74,SSW,201,0.0,0.0,91,0.00,,---,0.00,VWS V14.01,2013-12-03 00:07:00,
2013-12-02 18:12:00,56.6,54.3,29.74,SSW,201,0.0,0.0,92,0.00,,---,0.00,VWS V14.01,2013-12-03 00:12:00,
2013-12-02 18:17:00,56.4,54.1,29.73,SSW,201,0.0,0.0,92,0.00,,---,0.00,VWS V14.01,2013-12-03 00:17:00,
2013-12-02 18:22:00,56.2,53.9,29.73,SSW,201,0.0,0.0,92,0.00,,---,0.00,VWS V14.01,2013-12-03 00:22:00,
2013-12-02 18:27:00,56.0,53.7,29.73,SSW,201,0.0,0.0,92,0.00,,---,0.00,VWS V14.01,2013-12-03 00:27:00,
2013-12-02 18:32:00,55.8,53.8,29.73,SSW,201,0.0,0.0,93,0.00,,---,0.00,VWS V14.01,2013-12-03 00:32:00,
2013-12-02 18:37:00,55.7,53.7,29.74,SSW,201,0.0,0.0,93,0.00,,---,0.00,VWS V14.01,2013-12-03 00:37:00,
2013-12-02 18:42:00,55.4,53.4,29.73,SSW,201,0.0,0.0,93,0.00,,---,0.00,VWS V14.01,2013-12-03 00:42:00,
2013-12-02 18:47:00,55.4,53.7,29.74,SSW,201,0.0,0.0,94,0.00,,---,0.00,VWS V14.01,2013-12-03 00:47:00,
2013-12-02 18:52:00,55.4,54.0,29.74,SSW,201,0.0,0.0,95,0.00,,---,0.00,VWS V14.01,2013-12-03 00:52:00,
2013-12-02 18:57:00,55.3,53.9,29.74,SSW,201,0.0,0.0,95,0.00,,---,0.00,VWS V14.01,2013-12-03 00:57:00,
2013-12-02 19:02:00,55.1,53.7,29.73,SSW,201,0.0,0.0,95,0.00,,---,0.00,VWS V14.01,2013-12-03 01:02:00,
2013-12-02 19:07:00,55.0,53.6,29.74,SSW,201,0.0,0.0,95,0.00,,---,0.00,VWS V14.01,2013-12-03 01:07:00,
2013-12-02 19:12:00,55.0,53.6,29.74,SSW,201,0.0,0.0,95,0.00,,---,0.00,VWS V14.01,2013-12-03 01:12:00,
2013-12-02 19:17:00,54.9,53.5,29.74,SSW,201,0.0,0.0,95,0.00,,---,0.00,VWS V14.01,2013-12-03 01:17:00,
2013-12-02 19:22:00,54.9,53.8,29.74,SSW,201,0.0,0.0,96,0.00,,---,0.00,VWS V14.01,2013-12-03 01:22:00,
2013-12-02 19:27:00,54.9,53.8,29.74,SSW,201,0.0,0.0,96,0.00,,---,0.00,VWS V14.01,2013-12-03 01:27:00,
2013-12-02 19:32:00,55.3,54.2,29.74,SSW,201,0.0,0.0,96,0.00,,---,0.00,VWS V14.01,2013-12-03 01:32:00,
2013-12-02 19:37:00,56.5,55.7,29.74,SSW,201,0.0,0.0,97,0.00,,---,0.00,VWS V14.01,2013-12-03 01:37:00,
2013-12-02 19:42:00,57.5,56.9,29.74,SSW,201,0.0,0.0,98,0.00,,---,0.00,VWS V14.01,2013-12-03 01:42:00,
2013-12-02 19:47:00,57.5,56.9,29.74,SSW,201,0.0,0.0,98,0.00,,---,0.00,VWS V14.01,2013-12-03 01:47:00,
2013-12-02 19:52:00,57.4,56.8,29.74,SSW,203,0.0,0.0,98,0.00,,---,0.00,VWS V14.01,2013-12-03 01:52:00,
2013-12-02 19:57:00,57.9,57.3,29.74,SSW,203,0.0,0.0,98,0.00,,---,0.00,VWS V14.01,2013-12-03 01:57:00,
2013-12-02 20:02:00,58.1,57.5,29.74,SSW,203,0.0,0.0,98,0.00,,---,0.00,VWS V14.01,2013-12-03 02:02:00,
2013-12-02 20:07:00,58.4,57.8,29.74,SSW,203,0.0,0.0,98,0.00,,---,0.00,VWS V14.01,2013-12-03 02:07:00,
2013-12-02 20:12:00,58.6,58.0,29.74,SSW,203,0.0,0.0,98,0.00,,---,0.00,VWS V14.01,2013-12-03 02:12:00,
2013-12-02 20:17:00,58.9,58.3,29.74,SSW,203,0.0,0.0,98,0.00,,---,0.00,VWS V14.01,2013-12-03 02:17:00,
2013-12-02 20:22:00,59.3,58.7,29.74,SSW,203,0.0,0.0,98,0.00,,---,0.00,VWS V14.01,2013-12-03 02:22:00,
2013-12-02 20:27:00,59.6,59.0,29.74,SSW,203,0.0,0.0,98,0.00,,---,0.00,VWS V14.01,2013-12-03 02:27:00,
2013-12-02 20:32:00,59.9,59.3,29.74,SSW,203,0.0,0.0,98,0.00,,---,0.00,VWS V14.01,2013-12-03 02:32:00,
2013-12-02 20:37:00,60.1,59.5,29.74,SSW,203,0.0,0.0,98,0.00,,---,0.00,VWS V14.01,2013-12-03 02:37:00,
2013-12-02 20:42:00,60.3,59.7,29.74,SSW,203,0.0,0.0,98,0.00,,---,0.00,VWS V14.01,2013-12-03 02:42:00,
2013-12-02 20:47:00,60.5,59.9,29.74,SSW,203,0.0,0.0,98,0.00,,---,0.00,VWS V14.01,2013-12-03 02:47:00,
2013-12-02 20:52:00,60.6,60.0,29.74,SSW,203,0.0,0.0,98,0.00,,---,0.00,VWS V14.01,2013-12-03 02:52:00,
2013-12-02 20:57:00,60.7,60.1,29.75,SSW,203,0.0,0.0,98,0.00,,---,0.00,VWS V14.01,2013-12-03 02:57:00,
2013-12-02 21:02:00,60.9,60.3,29.75,SSW,203,0.0,0.0,98,0.00,,---,0.00,VWS V14.01,2013-12-03 03:02:00,
2013-12-02 21:07:00,61.1,60.5,29.75,SSW,203,0.0,0.0,98,0.00,,---,0.00,VWS V14.01,2013-12-03 03:07:00,
2013-12-02 21:12:00,61.3,60.7,29.75,SSW,201,0.0,0.0,98,0.00,,---,0.00,VWS V14.01,2013-12-03 03:12:00,
2013-12-02 21:17:00,61.5,60.9,29.76,SSW,201,0.0,0.0,98,0.00,,---,0.00,VWS V14.01,2013-12-03 03:17:00,
2013-12-02 21:22:00,61.6,61.0,29.76,SSW,212,0.0,1.0,98,0.00,,---,0.00,VWS V14.01,2013-12-03 03:22:00,
2013-12-02 21:27:00,61.8,61.2,29.76,SSW,210,0.0,1.0,98,0.00,,---,0.00,VWS V14.01,2013-12-03 03:27:00,
2013-12-02 21:32:00,61.9,61.3,29.76,SE,130,0.0,0.0,98,0.00,,---,0.00,VWS V14.01,2013-12-03 03:32:00,
2013-12-02 21:37:00,61.9,61.3,29.76,SSW,204,1.0,1.0,98,0.00,,---,0.00,VWS V14.01,2013-12-03 03:37:00,
2013-12-02 21:42:00,62.0,61.4,29.77,SSW,204,0.0,1.0,98,0.00,,---,0.00,VWS V14.01,2013-12-03 03:42:00,
2013-12-02 21:47:00,62.0,61.4,29.77,SSW,204,0.0,1.0,98,0.00,,---,0.00,VWS V14.01,2013-12-03 03:47:00,
2013-12-02 21:52:00,61.9,61.3,29.76,SSW,204,0.0,1.0,98,0.00,,---,0.00,VWS V14.01,2013-12-03 03:52:00,
2013-12-02 21:57:00,61.8,61.2,29.76,SSW,204,0.0,1.0,98,0.00,,---,0.00,VWS V14.01,2013-12-03 03:57:00,
2013-12-02 22:02:00,61.7,61.1,29.77,SSW,204,0.0,0.0,98,0.00,,---,0.00,VWS V14.01,2013-12-03 04:02:00,
2013-12-02 22:07:00,61.6,61.0,29.76,SSW,204,0.0,0.0,98,0.00,,---,0.00,VWS V14.01,2013-12-03 04:07:00,
2013-12-02 22:12:00,61.6,61.0,29.76,SSW,204,0.0,0.0,98,0.00,,---,0.00,VWS V14.01,2013-12-03 04:12:00,
2013-12-02 22:17:00,61.5,60.9,29.76,SSW,204,0.0,0.0,98,0.00,,---,0.00,VWS V14.01,2013-12-03 04:17:00,
2013-12-02 22:22:00,61.4,60.8,29.76,SSW,204,0.0,0.0,98,0.00,,---,0.00,VWS V14.01,2013-12-03 04:22:00,
2013-12-02 22:27:00,61.5,60.9,29.76,SSW,203,0.0,0.0,98,0.00,,---,0.00,VWS V14.01,2013-12-03 04:27:00,
2013-12-02 22:32:00,61.5,60.9,29.76,SSW,204,0.0,0.0,98,0.00,,---,0.00,VWS V14.01,2013-12-03 04:32:00,
2013-12-02 22:37:00,61.4,60.8,29.76,SSW,204,0.0,0.0,98,0.00,,---,0.00,VWS V14.01,2013-12-03 04:37:00,
2013-12-02 22:42:00,61.2,60.6,29.76,SSW,204,0.0,0.0,98,0.00,,---,0.00,VWS V14.01,2013-12-03 04:42:00,
2013-12-02 22:47:00,61.0,60.4,29.76,SSW,204,0.0,0.0,98,0.00,,---,0.00,VWS V14.01,2013-12-03 04:47:00,
2013-12-02 22:52:00,60.9,60.3,29.76,SSW,204,0.0,0.0,98,0.00,,---,0.00,VWS V14.01,2013-12-03 04:52:00,
2013-12-02 22:57:00,61.0,60.4,29.76,SSW,204,0.0,0.0,98,0.00,,---,0.00,VWS V14.01,2013-12-03 04:57:00,
2013-12-02 23:01:00,61.1,60.5,29.76,SSW,204,0.0,0.0,98,0.00,,---,0.00,VWS V14.01,2013-12-03 05:01:00,
2013-12-02 23:06:00,61.3,60.7,29.75,SSW,193,0.0,1.0,98,0.00,,---,0.00,VWS V14.01,2013-12-03 05:06:00,
2013-12-02 23:11:00,61.3,60.7,29.75,SSW,193,0.0,1.0,98,0.00,,---,0.00,VWS V14.01,2013-12-03 05:11:00,
2013-12-02 23:16:00,61.3,60.7,29.75,SSW,193,0.0,1.0,98,0.00,,---,0.00,VWS V14.01,2013-12-03 05:16:00,
2013-12-02 23:21:00,61.3,60.7,29.75,SSW,193,0.0,1.0,98,0.00,,---,0.00,VWS V14.01,2013-12-03 05:21:00,
2013-12-02 23:26:00,61.2,60.6,29.75,SSW,193,0.0,1.0,98,0.00,,---,0.00,VWS V14.01,2013-12-03 05:26:00,
2013-12-02 23:31:00,61.1,60.5,29.75,SSW,201,0.0,0.0,98,0.00,,---,0.00,VWS V14.01,2013-12-03 05:31:00,
2013-12-02 23:36:00,60.9,60.3,29.74,SSW,201,0.0,0.0,98,0.00,,---,0.00,VWS V14.01,2013-12-03 05:36:00,
2013-12-02 23:41:00,60.8,60.2,29.74,SSW,201,0.0,0.0,98,0.00,,---,0.00,VWS V14.01,2013-12-03 05:41:00,
2013-12-02 23:46:00,60.5,59.9,29.74,SSW,201,0.0,0.0,98,0.00,,---,0.00,VWS V14.01,2013-12-03 05:46:00,
2013-12-02 23:51:00,60.2,59.6,29.74,SSW,201,0.0,0.0,98,0.00,,---,0.00,VWS V14.01,2013-12-03 05:51:00,
2013-12-02 23:56:00,59.8,59.2,29.74,SSW,201,0.0,0.0,98,0.00,,---,0.00,VWS V14.01,2013-12-03 05:56:00,